Time;durP1;ratioP1;P1;durP2;ratioP2;P2;SDS_P1;SDS_P2;PMS_P1;PMS_P2;Temp;Humidity;BMP_temperature;BMP_pressure;BME280_temperature;BME280_humidity;BME280_pressure;Samples;Min_cycle;Max_cycle;Signal;HPM_P1;HPM_P2
2022/11/27 00:00:21;;;;;;;18.75;5.60;;;6.50;99.90;;;;;;4987626;28;20414;-77
2022/11/27 00:02:47;;;;;;;20.52;5.97;;;6.70;99.90;;;;;;4988110;28;20501;-76
2022/11/27 00:05:13;;;;;;;22.70;6.45;;;6.70;99.90;;;;;;4987938;28;20406;-76
2022/11/27 00:07:39;;;;;;;22.90;7.75;;;6.40;99.90;;;;;;4987643;28;20492;-76
2022/11/27 00:10:05;;;;;;;20.75;7.53;;;6.60;99.90;;;;;;4987941;28;20461;-76
2022/11/27 00:12:31;;;;;;;20.15;5.38;;;6.60;99.90;;;;;;4985881;28;20472;-77
2022/11/27 00:14:57;;;;;;;19.63;5.90;;;6.60;99.90;;;;;;4987454;28;20426;-77
2022/11/27 00:17:23;;;;;;;21.13;6.20;;;6.80;99.90;;;;;;4987649;28;20482;-76
2022/11/27 00:19:48;;;;;;;18.93;6.00;;;6.60;99.90;;;;;;4987438;28;20439;-76
2022/11/27 00:22:15;;;;;;;22.80;8.03;;;6.50;99.90;;;;;;4988717;28;20418;-76
2022/11/27 00:24:42;;;;;;;18.65;5.43;;;6.40;99.90;;;;;;4986851;28;20469;-77
2022/11/27 00:27:08;;;;;;;23.30;7.05;;;6.60;99.90;;;;;;4985973;28;20484;-76
2022/11/27 00:29:34;;;;;;;17.08;5.55;;;6.60;99.90;;;;;;4995847;28;20474;-77
2022/11/27 00:32:00;;;;;;;21.87;7.03;;;6.60;99.90;;;;;;5007539;28;20412;-76
2022/11/27 00:34:26;;;;;;;19.48;5.47;;;6.50;99.90;;;;;;5006913;28;20401;-76
2022/11/27 00:36:52;;;;;;;20.17;7.35;;;6.50;99.90;;;;;;5007234;28;20792;-80
2022/11/27 00:39:18;;;;;;;23.20;7.13;;;6.40;99.90;;;;;;5007299;28;20401;-77
2022/11/27 00:41:44;;;;;;;25.88;7.47;;;6.50;99.90;;;;;;5006862;28;20459;-77
2022/11/27 00:44:11;;;;;;;13.40;6.13;;;6.30;99.90;;;;;;5010684;28;20452;-77
2022/11/27 00:46:37;;;;;;;21.85;7.20;;;6.30;99.90;;;;;;5010814;28;20418;-75
2022/11/27 00:49:05;;;;;;;22.47;7.43;;;6.30;99.90;;;;;;5011390;28;20911;-75
2022/11/27 00:51:31;;;;;;;17.90;5.73;;;6.40;99.90;;;;;;4993449;28;20499;-76
2022/11/27 00:53:57;;;;;;;18.75;5.25;;;6.30;99.90;;;;;;5011095;28;20484;-76
2022/11/27 00:56:25;;;;;;;20.77;6.18;;;6.40;99.90;;;;;;4992823;28;20424;-77
2022/11/27 00:58:52;;;;;;;19.58;6.28;;;6.30;99.90;;;;;;5008963;28;20918;-76
2022/11/27 01:01:20;;;;;;;20.05;6.55;;;6.40;99.90;;;;;;5010140;28;20515;-79
2022/11/27 01:03:46;;;;;;;18.30;5.97;;;6.40;99.90;;;;;;5011222;28;20401;-76
2022/11/27 01:06:13;;;;;;;20.48;6.35;;;6.40;99.90;;;;;;5010333;28;20772;-76
2022/11/27 01:08:40;;;;;;;16.88;5.85;;;6.10;99.90;;;;;;5009984;28;20745;-77
2022/11/27 01:11:06;;;;;;;23.85;7.47;;;6.30;99.90;;;;;;5010556;28;20413;-77
2022/11/27 01:13:34;;;;;;;17.42;6.45;;;6.20;99.90;;;;;;5008835;28;20436;-78
2022/11/27 01:16:08;;;;;;;18.70;6.35;;;6.40;99.90;;;;;;5010253;28;20434;-76
2022/11/27 01:18:36;;;;;;;19.02;5.68;;;6.20;99.90;;;;;;5009743;28;20409;-77
2022/11/27 01:21:03;;;;;;;16.47;6.93;;;6.20;99.90;;;;;;5010271;28;20409;-76
2022/11/27 01:23:34;;;;;;;21.10;6.15;;;6.10;99.90;;;;;;5010114;28;20794;-77
2022/11/27 01:26:05;;;;;;;20.50;5.90;;;6.20;99.90;;;;;;5010470;28;20478;-76
2022/11/27 01:28:32;;;;;;;20.63;6.45;;;6.00;99.90;;;;;;5008135;28;20981;-77
2022/11/27 01:31:02;;;;;;;14.57;5.70;;;6.00;99.90;;;;;;4990384;28;20410;-76
2022/11/27 01:33:28;;;;;;;19.55;5.95;;;6.20;99.90;;;;;;4990059;28;20423;-76
2022/11/27 01:35:59;;;;;;;20.77;7.38;;;6.20;99.90;;;;;;4990068;28;20418;-77
2022/11/27 01:38:26;;;;;;;19.92;5.75;;;6.00;99.90;;;;;;4990435;28;20398;-76
2022/11/27 01:41:03;;;;;;;16.60;6.53;;;6.20;99.90;;;;;;4990257;28;20438;-76
2022/11/27 01:43:49;;;;;;;19.90;6.97;;;6.00;99.90;;;;;;4989210;28;20403;-76
2022/11/27 01:46:38;;;;;;;17.10;7.00;;;6.10;99.90;;;;;;4990169;28;20929;-76
2022/11/27 01:49:10;;;;;;;22.80;7.18;;;6.10;99.90;;;;;;4989021;28;20849;-77
2022/11/27 01:51:40;;;;;;;16.60;6.18;;;6.00;99.90;;;;;;4989312;28;20421;-77
2022/11/27 01:54:08;;;;;;;14.38;5.68;;;6.10;99.90;;;;;;4989817;28;20407;-75
2022/11/27 01:56:34;;;;;;;17.23;6.25;;;6.20;99.90;;;;;;4988238;28;20416;-76
2022/11/27 01:59:02;;;;;;;24.38;6.93;;;6.20;99.90;;;;;;4989752;28;20750;-77
2022/11/27 02:01:27;;;;;;;19.83;5.40;;;6.10;99.90;;;;;;4989534;28;20406;-76
2022/11/27 02:03:56;;;;;;;14.82;5.85;;;6.20;99.90;;;;;;5034636;23;20490;-76
2022/11/27 02:06:24;;;;;;;16.52;6.10;;;6.20;99.90;;;;;;4935416;29;20477;-78
2022/11/27 02:08:50;;;;;;;17.67;6.20;;;6.10;99.90;;;;;;4950972;29;20795;-76
2022/11/27 02:11:50;;;;;;;15.68;6.10;;;6.20;99.90;;;;;;4951357;29;20476;-76
2022/11/27 02:14:40;;;;;;;17.52;6.28;;;6.10;99.90;;;;;;4950415;29;20449;-76
2022/11/27 02:17:21;;;;;;;16.95;5.85;;;6.10;99.90;;;;;;4951253;29;20488;-76
2022/11/27 02:20:25;;;;;;;15.40;6.35;;;6.00;99.90;;;;;;4951652;29;20413;-76
2022/11/27 02:23:17;;;;;;;19.30;6.63;;;6.00;99.90;;;;;;4950756;29;20409;-76
2022/11/27 02:26:20;;;;;;;15.35;5.20;;;5.90;99.90;;;;;;4950925;29;20780;-76
2022/11/27 02:29:11;;;;;;;18.73;6.72;;;5.90;99.90;;;;;;4951183;29;20502;-76
2022/11/27 02:31:49;;;;;;;14.55;5.97;;;5.90;99.90;;;;;;4951013;29;20891;-77
2022/11/27 02:34:55;;;;;;;17.35;5.75;;;5.90;99.90;;;;;;4951328;29;20422;-77
2022/11/27 02:37:53;;;;;;;16.38;5.65;;;5.90;99.90;;;;;;4951071;29;20776;-77
2022/11/27 02:40:25;;;;;;;16.15;6.03;;;5.90;99.90;;;;;;4937654;29;20424;-77
2022/11/27 02:43:04;;;;;;;16.17;6.65;;;5.90;99.90;;;;;;4949715;29;20418;-76
2022/11/27 02:45:42;;;;;;;14.93;6.07;;;6.00;99.90;;;;;;4950414;29;20430;-77
2022/11/27 02:48:11;;;;;;;14.25;5.18;;;5.90;99.90;;;;;;4950327;29;20433;-76
2022/11/27 02:50:39;;;;;;;12.40;5.70;;;5.90;99.90;;;;;;4933042;29;20862;-76
2022/11/27 02:53:12;;;;;;;13.07;5.53;;;5.90;99.90;;;;;;4950800;29;20800;-76
2022/11/27 02:55:39;;;;;;;12.20;6.20;;;6.00;99.90;;;;;;4949911;29;20426;-76
2022/11/27 02:58:13;;;;;;;14.15;6.07;;;6.00;99.90;;;;;;4949018;29;20437;-77
2022/11/27 03:00:40;;;;;;;16.33;7.18;;;6.00;99.90;;;;;;4945534;29;20462;-75
2022/11/27 03:03:11;;;;;;;15.77;6.78;;;6.00;99.90;;;;;;4939585;28;20425;-76
2022/11/27 03:05:41;;;;;;;15.80;7.15;;;6.00;99.90;;;;;;4949563;28;20421;-76
2022/11/27 03:08:17;;;;;;;15.60;6.57;;;6.10;99.90;;;;;;4932111;29;20464;-77
2022/11/27 03:10:57;;;;;;;20.13;7.25;;;6.00;99.90;;;;;;4950148;29;20769;-77
2022/11/27 03:13:23;;;;;;;14.77;6.43;;;6.10;99.90;;;;;;4948255;29;20406;-76
2022/11/27 03:16:05;;;;;;;18.10;6.77;;;6.00;99.90;;;;;;4950018;29;20453;-77
2022/11/27 03:19:15;;;;;;;16.10;6.30;;;6.10;99.90;;;;;;4949812;29;20456;-76
2022/11/27 03:21:45;;;;;;;14.95;6.15;;;6.00;99.90;;;;;;4949452;29;20501;-76
2022/11/27 03:24:11;;;;;;;13.23;5.93;;;6.10;99.90;;;;;;4949685;29;20409;-78
2022/11/27 03:26:39;;;;;;;14.63;6.72;;;6.10;99.90;;;;;;4947831;29;20493;-77
2022/11/27 03:29:11;;;;;;;21.13;6.97;;;6.20;99.90;;;;;;4932018;29;20938;-78
2022/11/27 03:31:37;;;;;;;14.30;6.18;;;6.10;99.90;;;;;;4949092;29;20437;-76
2022/11/27 03:34:03;;;;;;;17.58;7.18;;;6.10;99.90;;;;;;4949586;29;20430;-76
2022/11/27 03:36:29;;;;;;;14.52;6.13;;;6.20;99.90;;;;;;4949585;29;20485;-76
2022/11/27 03:38:55;;;;;;;18.03;7.43;;;6.20;99.90;;;;;;4949761;29;21007;-76
2022/11/27 03:41:39;;;;;;;13.03;6.73;;;6.10;99.90;;;;;;4948726;29;20419;-76
2022/11/27 03:44:29;;;;;;;20.80;8.75;;;6.10;99.90;;;;;;4949540;29;20446;-75
2022/11/27 03:47:04;;;;;;;22.00;6.93;;;6.30;99.90;;;;;;4949683;29;20589;-76
2022/11/27 03:49:45;;;;;;;15.75;6.35;;;6.10;99.90;;;;;;4949305;29;20828;-76
2022/11/27 03:52:38;;;;;;;15.30;5.65;;;6.10;99.90;;;;;;4949420;29;20458;-76
2022/11/27 03:55:15;;;;;;;13.85;7.28;;;6.20;99.90;;;;;;4949534;29;20533;-77
2022/11/27 03:58:05;;;;;;;17.15;6.25;;;6.20;99.90;;;;;;4947701;29;20497;-75
2022/11/27 04:00:35;;;;;;;14.82;6.22;;;6.10;99.90;;;;;;4948364;29;20441;-76
2022/11/27 04:03:02;;;;;;;15.37;6.30;;;6.20;99.90;;;;;;4949372;28;20437;-76
2022/11/27 04:05:28;;;;;;;18.37;6.30;;;6.20;99.90;;;;;;4949143;29;20923;-77
2022/11/27 04:07:53;;;;;;;15.23;7.00;;;6.20;99.90;;;;;;4932187;29;20549;-76
2022/11/27 04:10:19;;;;;;;14.80;6.05;;;6.10;99.90;;;;;;4948776;29;20438;-77
2022/11/27 04:12:45;;;;;;;18.38;6.75;;;6.20;99.90;;;;;;4948260;29;20896;-76
2022/11/27 04:15:11;;;;;;;17.88;6.60;;;6.20;99.90;;;;;;4948923;29;20418;-76
2022/11/27 04:17:37;;;;;;;18.17;6.72;;;6.10;99.90;;;;;;4948232;29;20410;-75
2022/11/27 04:20:04;;;;;;;13.53;6.10;;;6.10;99.90;;;;;;4948997;29;20418;-76
2022/11/27 04:22:29;;;;;;;12.67;6.07;;;6.10;99.90;;;;;;4948409;29;20416;-77
2022/11/27 04:24:55;;;;;;;17.20;7.10;;;6.10;99.90;;;;;;4949223;29;20422;-76
2022/11/27 04:27:21;;;;;;;16.30;5.95;;;6.20;99.90;;;;;;4947675;29;20414;-76
2022/11/27 04:29:47;;;;;;;12.98;6.00;;;6.10;99.90;;;;;;4949151;29;20533;-76
2022/11/27 04:32:12;;;;;;;15.18;5.78;;;6.10;99.90;;;;;;4948680;29;20921;-76
2022/11/27 04:34:38;;;;;;;16.42;5.78;;;6.10;99.90;;;;;;4948594;29;20418;-80
2022/11/27 04:37:04;;;;;;;14.38;5.90;;;6.10;99.90;;;;;;4942890;29;20929;-77
2022/11/27 04:39:29;;;;;;;12.15;6.22;;;6.10;99.90;;;;;;4929400;29;20437;-77
2022/11/27 04:41:55;;;;;;;14.05;5.65;;;6.10;99.90;;;;;;4929065;29;20416;-77
2022/11/27 04:44:21;;;;;;;16.98;6.38;;;6.10;99.90;;;;;;4930009;29;20455;-75
2022/11/27 04:46:48;;;;;;;14.38;5.07;;;6.10;99.90;;;;;;4930290;29;20415;-76
2022/11/27 04:49:14;;;;;;;14.98;6.00;;;6.00;99.90;;;;;;4930003;29;20439;-78
2022/11/27 04:51:39;;;;;;;10.73;5.33;;;6.10;99.90;;;;;;4929678;29;20496;-75
2022/11/27 04:54:05;;;;;;;11.33;5.20;;;6.10;99.90;;;;;;4929969;29;20989;-76
2022/11/27 04:56:31;;;;;;;16.77;5.77;;;6.00;99.90;;;;;;4928620;29;20411;-80
2022/11/27 04:58:57;;;;;;;15.98;6.10;;;6.00;99.90;;;;;;4929711;29;20422;-76
2022/11/27 05:01:22;;;;;;;17.85;5.43;;;6.10;99.90;;;;;;4929246;29;20403;-76
2022/11/27 05:03:48;;;;;;;14.05;4.88;;;6.00;99.90;;;;;;4941276;29;20434;-77
2022/11/27 05:06:14;;;;;;;11.80;5.72;;;6.00;99.90;;;;;;4949029;29;20410;-77
2022/11/27 05:08:40;;;;;;;11.98;5.88;;;6.00;99.90;;;;;;4948123;29;20426;-76
2022/11/27 05:11:10;;;;;;;15.50;6.77;;;6.00;99.90;;;;;;4947824;29;20457;-76
2022/11/27 05:13:36;;;;;;;16.08;6.22;;;6.20;99.90;;;;;;4948186;29;20410;-76
2022/11/27 05:16:02;;;;;;;13.93;5.07;;;6.20;99.90;;;;;;4948540;29;20430;-77
2022/11/27 05:18:27;;;;;;;14.05;6.13;;;6.10;99.90;;;;;;4947994;29;20485;-77
2022/11/27 05:20:58;;;;;;;14.43;5.47;;;6.10;99.90;;;;;;4948403;29;20442;-78
2022/11/27 05:23:24;;;;;;;17.13;5.40;;;6.10;99.90;;;;;;4948660;29;20406;-75
2022/11/27 05:25:50;;;;;;;12.52;5.25;;;6.20;99.90;;;;;;4947717;29;20410;-76
2022/11/27 05:28:16;;;;;;;12.10;4.30;;;6.20;99.90;;;;;;4948305;29;20433;-76
2022/11/27 05:30:42;;;;;;;21.60;5.60;;;6.20;99.90;;;;;;4932841;29;20432;-77
2022/11/27 05:33:08;;;;;;;14.80;5.50;;;6.20;99.90;;;;;;4951702;29;20477;-76
2022/11/27 05:35:33;;;;;;;12.00;6.20;;;6.20;99.90;;;;;;4951796;29;20425;-76
2022/11/27 05:37:59;;;;;;;12.33;4.87;;;6.30;99.90;;;;;;4951460;29;20512;-76
2022/11/27 05:40:25;;;;;;;16.17;4.93;;;6.30;99.90;;;;;;4951769;29;20489;-76
2022/11/27 05:42:51;;;;;;;11.93;5.27;;;6.30;99.90;;;;;;4950637;29;20506;-76
2022/11/27 05:45:16;;;;;;;11.25;3.88;;;6.30;99.90;;;;;;4951553;29;20445;-75
2022/11/27 05:47:42;;;;;;;9.73;3.83;;;6.30;99.90;;;;;;4951593;29;20898;-76
2022/11/27 05:50:08;;;;;;;10.43;3.80;;;6.30;99.90;;;;;;4951161;29;20421;-76
2022/11/27 05:52:34;;;;;;;11.90;4.53;;;6.30;99.90;;;;;;4933686;29;21007;-77
2022/11/27 05:54:59;;;;;;;9.95;4.63;;;6.40;99.90;;;;;;4951287;29;20434;-75
2022/11/27 05:57:25;;;;;;;11.43;4.28;;;6.40;99.90;;;;;;4950125;29;20425;-76
2022/11/27 05:59:51;;;;;;;10.15;3.80;;;6.30;99.90;;;;;;4951511;29;20429;-77
2022/11/27 06:02:17;;;;;;;9.32;3.83;;;6.40;99.90;;;;;;4951357;29;20957;-76
2022/11/27 06:04:43;;;;;;;12.40;3.90;;;6.40;99.90;;;;;;4934874;29;20481;-76
2022/11/27 06:07:08;;;;;;;12.13;4.68;;;6.40;99.90;;;;;;4950979;29;20417;-75
2022/11/27 06:09:36;;;;;;;12.53;4.00;;;6.40;99.90;;;;;;4950703;29;20470;-76
2022/11/27 06:12:02;;;;;;;9.87;4.23;;;6.40;99.90;;;;;;4933422;29;20414;-77
2022/11/27 06:14:30;;;;;;;12.00;4.78;;;6.40;99.90;;;;;;4950772;29;20473;-76
2022/11/27 06:16:56;;;;;;;10.77;3.58;;;6.40;99.90;;;;;;4933713;29;20414;-76
2022/11/27 06:19:22;;;;;;;13.35;3.78;;;6.40;99.90;;;;;;4950570;29;20410;-76
2022/11/27 06:21:48;;;;;;;10.05;3.78;;;6.30;99.90;;;;;;4951157;29;20421;-76
2022/11/27 06:24:14;;;;;;;10.63;4.13;;;6.40;99.90;;;;;;4951489;29;20417;-75
2022/11/27 06:26:40;;;;;;;11.07;4.20;;;6.40;99.90;;;;;;4949915;29;20441;-77
2022/11/27 06:29:05;;;;;;;12.48;4.07;;;6.40;99.90;;;;;;4933381;29;20875;-77
2022/11/27 06:31:32;;;;;;;10.52;4.15;;;6.40;99.90;;;;;;4950450;29;20437;-77
2022/11/27 06:33:59;;;;;;;12.68;4.28;;;6.40;99.90;;;;;;4933267;29;20931;-75
2022/11/27 06:36:30;;;;;;;12.93;3.97;;;6.40;99.90;;;;;;4950290;29;20425;-77
2022/11/27 06:38:57;;;;;;;8.32;3.25;;;6.40;99.90;;;;;;4950562;29;20425;-75
2022/11/27 06:41:25;;;;;;;7.97;3.63;;;6.40;99.90;;;;;;4949577;28;20856;-76
2022/11/27 06:43:51;;;;;;;9.88;3.88;;;6.40;99.90;;;;;;4950257;29;20461;-76
2022/11/27 06:46:19;;;;;;;8.88;3.40;;;6.40;99.90;;;;;;4950373;29;20410;-76
2022/11/27 06:48:47;;;;;;;15.32;5.60;;;6.50;99.90;;;;;;4950120;29;20465;-76
2022/11/27 06:51:15;;;;;;;6.75;3.38;;;6.40;99.90;;;;;;4951086;29;20720;-76
2022/11/27 06:53:41;;;;;;;9.00;2.97;;;6.50;99.90;;;;;;4950059;29;20418;-76
2022/11/27 06:56:10;;;;;;;10.50;5.00;;;6.60;99.90;;;;;;4949098;29;20445;-77
2022/11/27 06:58:36;;;;;;;9.82;3.47;;;6.50;99.90;;;;;;4950097;29;20462;-75
2022/11/27 07:01:05;;;;;;;10.73;4.18;;;6.40;99.90;;;;;;4949993;29;20421;-77
2022/11/27 07:03:30;;;;;;;10.43;3.70;;;6.40;99.90;;;;;;4950047;29;20426;-77
2022/11/27 07:06:00;;;;;;;12.87;5.70;;;6.40;99.90;;;;;;4951172;29;20832;-77
2022/11/27 07:08:26;;;;;;;11.25;3.80;;;6.40;99.90;;;;;;4949832;29;20489;-77
2022/11/27 07:10:52;;;;;;;13.90;4.78;;;6.40;99.90;;;;;;4949667;29;20825;-77
2022/11/27 07:13:17;;;;;;;10.35;3.88;;;6.50;99.90;;;;;;4948992;29;20417;-77
2022/11/27 07:15:43;;;;;;;10.30;3.92;;;6.50;99.90;;;;;;4950651;29;20796;-76
2022/11/27 07:18:09;;;;;;;8.68;3.95;;;6.50;99.90;;;;;;4949972;29;20398;-76
2022/11/27 07:20:35;;;;;;;9.60;3.97;;;6.50;99.90;;;;;;4949288;29;20520;-76
2022/11/27 07:23:01;;;;;;;10.23;4.13;;;6.50;99.90;;;;;;4949610;29;20945;-76
2022/11/27 07:25:27;;;;;;;9.73;3.90;;;6.50;99.90;;;;;;4948587;29;20888;-76
2022/11/27 07:27:53;;;;;;;10.93;4.93;;;6.50;99.90;;;;;;4949287;29;20422;-76
2022/11/27 07:30:19;;;;;;;10.07;4.20;;;6.50;99.90;;;;;;4949517;29;20429;-78
2022/11/27 07:32:45;;;;;;;11.57;3.88;;;6.50;99.90;;;;;;4949838;29;20829;-76
2022/11/27 07:35:11;;;;;;;12.85;4.10;;;6.50;99.90;;;;;;4948679;29;21054;-76
2022/11/27 07:37:37;;;;;;;10.68;3.90;;;6.50;99.90;;;;;;4948645;29;20461;-77
2022/11/27 07:40:03;;;;;;;8.55;3.70;;;6.50;99.90;;;;;;4948862;29;20505;-76
2022/11/27 07:42:29;;;;;;;10.00;3.85;;;6.50;99.90;;;;;;4948498;29;20410;-77
2022/11/27 07:44:55;;;;;;;11.03;4.00;;;6.60;99.90;;;;;;4949551;29;21091;-77
2022/11/27 07:47:21;;;;;;;10.38;4.10;;;6.50;99.90;;;;;;4948812;29;20414;-76
2022/11/27 07:49:46;;;;;;;12.85;4.00;;;6.50;99.90;;;;;;4949810;29;20430;-75
2022/11/27 07:52:12;;;;;;;11.88;4.65;;;6.50;99.90;;;;;;4948435;28;20411;-76
2022/11/27 07:54:38;;;;;;;9.35;4.38;;;6.60;99.90;;;;;;4948818;29;20451;-77
2022/11/27 07:57:04;;;;;;;10.38;4.78;;;6.50;99.90;;;;;;4948284;29;20441;-76
2022/11/27 07:59:29;;;;;;;12.13;4.35;;;6.60;99.90;;;;;;4948603;29;20761;-76
2022/11/27 08:01:55;;;;;;;10.30;3.72;;;6.50;99.90;;;;;;4948936;29;20414;-76
2022/11/27 08:04:21;;;;;;;8.00;3.47;;;6.50;99.90;;;;;;4948806;29;20967;-77
2022/11/27 08:06:48;;;;;;;7.97;4.10;;;6.60;99.90;;;;;;4949498;29;20413;-77
2022/11/27 08:09:14;;;;;;;13.48;4.97;;;6.60;99.90;;;;;;4949475;29;20766;-78
2022/11/27 08:11:40;;;;;;;7.25;4.07;;;6.50;99.90;;;;;;4931103;29;20425;-76
2022/11/27 08:14:07;;;;;;;9.57;3.53;;;6.60;99.90;;;;;;4948192;29;20421;-77
2022/11/27 08:16:34;;;;;;;10.68;4.22;;;6.50;99.90;;;;;;4931706;29;20413;-75
2022/11/27 08:19:01;;;;;;;11.93;4.95;;;6.50;99.90;;;;;;4948996;29;20913;-75
2022/11/27 08:21:28;;;;;;;10.98;4.78;;;6.50;99.90;;;;;;4931741;29;20433;-77
2022/11/27 08:23:54;;;;;;;8.32;4.57;;;6.60;99.90;;;;;;4949493;29;20501;-76
2022/11/27 08:26:20;;;;;;;12.00;4.68;;;6.50;99.90;;;;;;4948096;29;20417;-76
2022/11/27 08:28:46;;;;;;;10.98;5.18;;;6.50;99.90;;;;;;4949031;29;20434;-75
2022/11/27 08:31:13;;;;;;;10.77;4.90;;;6.50;99.90;;;;;;4948692;29;20410;-76
2022/11/27 08:33:39;;;;;;;8.63;4.60;;;6.50;99.90;;;;;;4948502;29;20426;-76
2022/11/27 08:36:06;;;;;;;13.48;4.88;;;6.50;99.90;;;;;;4949178;29;20442;-76
2022/11/27 08:38:31;;;;;;;11.13;4.30;;;6.60;99.90;;;;;;4948015;29;20429;-78
2022/11/27 08:40:59;;;;;;;9.85;4.82;;;6.60;99.90;;;;;;4947716;29;20422;-76
2022/11/27 08:43:25;;;;;;;10.02;4.85;;;6.50;99.90;;;;;;4948411;29;20912;-76
2022/11/27 08:45:52;;;;;;;9.90;4.38;;;6.60;99.90;;;;;;4948548;29;20916;-76
2022/11/27 08:48:18;;;;;;;8.93;4.78;;;6.60;99.90;;;;;;4948662;29;20754;-77
2022/11/27 08:50:44;;;;;;;10.70;4.57;;;6.60;99.90;;;;;;4949048;29;20441;-76
2022/11/27 08:53:10;;;;;;;10.40;4.70;;;6.60;99.90;;;;;;4948407;29;20850;-76
2022/11/27 08:55:36;;;;;;;12.00;5.35;;;6.60;99.90;;;;;;4947512;29;20424;-76
2022/11/27 08:58:02;;;;;;;13.95;6.20;;;6.60;99.90;;;;;;4948489;29;20505;-77
2022/11/27 09:00:29;;;;;;;11.55;5.35;;;6.60;99.90;;;;;;4948633;29;20414;-76
2022/11/27 09:02:55;;;;;;;11.55;5.00;;;6.60;99.90;;;;;;4948755;28;20441;-76
2022/11/27 09:05:20;;;;;;;9.40;4.90;;;6.60;99.90;;;;;;4947541;28;20423;-77
2022/11/27 09:07:46;;;;;;;10.75;4.35;;;6.60;99.90;;;;;;4934000;29;20474;-77
2022/11/27 09:10:12;;;;;;;10.93;5.63;;;6.70;99.90;;;;;;4931906;29;20467;-78
2022/11/27 09:12:38;;;;;;;10.97;4.93;;;6.50;99.90;;;;;;4933079;29;20954;-77
2022/11/27 09:15:04;;;;;;;13.40;6.43;;;6.70;99.90;;;;;;4933603;29;20423;-76
2022/11/27 09:17:30;;;;;;;12.27;6.57;;;6.50;99.90;;;;;;4933120;29;20486;-77
2022/11/27 09:19:56;;;;;;;16.40;6.50;;;6.60;99.90;;;;;;4933305;29;20503;-76
2022/11/27 09:22:21;;;;;;;12.05;5.50;;;6.60;99.90;;;;;;4932362;29;20447;-76
2022/11/27 09:24:47;;;;;;;14.03;6.07;;;6.60;99.90;;;;;;4933073;29;20509;-76
2022/11/27 09:27:13;;;;;;;12.77;6.30;;;6.60;99.90;;;;;;4932446;29;20505;-77
2022/11/27 09:29:38;;;;;;;12.80;5.40;;;6.60;99.90;;;;;;4932931;29;20435;-76
2022/11/27 09:32:04;;;;;;;9.90;5.00;;;6.40;99.90;;;;;;4933002;29;20806;-75
2022/11/27 09:34:30;;;;;;;10.90;5.45;;;6.40;99.90;;;;;;4947022;29;20442;-75
2022/11/27 09:36:56;;;;;;;11.77;6.13;;;6.50;99.90;;;;;;4952148;29;20457;-75
2022/11/27 09:39:22;;;;;;;12.23;6.83;;;6.50;99.90;;;;;;4951126;29;20417;-75
2022/11/27 09:42:03;;;;;;;9.88;5.40;;;6.50;99.90;;;;;;4951571;29;20962;-77
2022/11/27 09:44:45;;;;;;;9.68;4.80;;;6.50;99.90;;;;;;4952129;29;20480;-77
2022/11/27 09:47:40;;;;;;;12.60;6.35;;;6.40;99.90;;;;;;4952013;29;20820;-76
2022/11/27 09:50:23;;;;;;;9.43;6.05;;;6.60;99.90;;;;;;4951611;29;20485;-76
2022/11/27 09:52:53;;;;;;;13.60;6.05;;;6.50;99.90;;;;;;4951555;29;20414;-76
2022/11/27 09:55:22;;;;;;;11.23;5.93;;;6.60;99.90;;;;;;4950503;29;20421;-76
2022/11/27 09:57:57;;;;;;;10.45;5.80;;;6.50;99.90;;;;;;4952071;29;20780;-77
2022/11/27 10:00:23;;;;;;;8.40;4.80;;;6.40;99.90;;;;;;4950668;29;20458;-75
2022/11/27 10:02:49;;;;;;;9.50;5.32;;;6.40;99.90;;;;;;4950897;29;20454;-75
2022/11/27 10:05:24;;;;;;;14.85;6.28;;;6.50;99.90;;;;;;4951695;29;20406;-76
2022/11/27 10:07:49;;;;;;;13.30;6.07;;;6.50;99.90;;;;;;4950932;29;20449;-75
2022/11/27 10:10:48;;;;;;;11.93;6.03;;;6.50;99.90;;;;;;4949901;29;20516;-75
2022/11/27 10:13:33;;;;;;;11.70;6.35;;;6.40;99.90;;;;;;4951599;29;20438;-76
2022/11/27 10:16:25;;;;;;;12.93;5.82;;;6.30;99.90;;;;;;4950689;28;20413;-76
2022/11/27 10:18:55;;;;;;;11.98;6.05;;;6.50;99.90;;;;;;4934044;29;20418;-75
2022/11/27 10:21:40;;;;;;;13.25;6.20;;;6.30;99.90;;;;;;4932891;29;20506;-75
2022/11/27 10:24:20;;;;;;;12.70;6.28;;;6.30;99.90;;;;;;4950887;29;20429;-76
2022/11/27 10:26:48;;;;;;;10.68;5.90;;;6.40;99.90;;;;;;4950273;29;20517;-75
2022/11/27 10:29:51;;;;;;;12.75;6.28;;;6.40;99.90;;;;;;4949975;29;20441;-75
2022/11/27 10:32:20;;;;;;;15.15;7.22;;;6.40;99.90;;;;;;4950889;29;20783;-75
2022/11/27 10:34:54;;;;;;;10.52;5.57;;;6.40;99.90;;;;;;4932951;29;20459;-75
2022/11/27 10:37:44;;;;;;;13.13;6.88;;;6.50;99.90;;;;;;4930290;29;20726;-75
2022/11/27 10:40:12;;;;;;;12.90;6.57;;;6.40;99.90;;;;;;4930129;29;20444;-75
2022/11/27 10:43:06;;;;;;;12.57;6.05;;;6.50;99.90;;;;;;4930966;29;20423;-75
2022/11/27 10:45:43;;;;;;;12.88;6.53;;;6.50;99.90;;;;;;4929839;29;20535;-75
2022/11/27 10:48:09;;;;;;;13.02;6.88;;;6.50;99.90;;;;;;4931774;29;20440;-75
2022/11/27 10:50:35;;;;;;;11.43;6.82;;;6.60;99.90;;;;;;4931151;29;20522;-75
2022/11/27 10:53:12;;;;;;;13.93;6.75;;;6.60;99.90;;;;;;4931061;29;20421;-77
2022/11/27 10:56:08;;;;;;;13.20;7.43;;;6.70;99.90;;;;;;4930111;29;21196;-75
2022/11/27 10:58:56;;;;;;;16.58;8.32;;;6.40;99.90;;;;;;4931119;29;20423;-76
2022/11/27 11:01:23;;;;;;;16.75;8.57;;;6.60;99.90;;;;;;4931236;29;20783;-75
2022/11/27 11:03:50;;;;;;;15.07;8.90;;;6.50;99.90;;;;;;4944077;29;20460;-76
2022/11/27 11:06:24;;;;;;;14.20;6.93;;;6.40;99.90;;;;;;4950185;29;20442;-75
2022/11/27 11:09:05;;;;;;;15.63;7.97;;;6.50;99.90;;;;;;4950036;29;21098;-75
2022/11/27 11:11:31;;;;;;;11.43;7.60;;;6.60;99.90;;;;;;4931623;29;20837;-75
2022/11/27 11:13:57;;;;;;;13.35;7.78;;;6.50;99.90;;;;;;4949206;29;20418;-77
2022/11/27 11:16:29;;;;;;;16.88;9.02;;;6.60;99.90;;;;;;4947660;29;20703;-76
2022/11/27 11:18:55;;;;;;;13.70;8.48;;;6.50;99.90;;;;;;4947963;29;20418;-77
2022/11/27 11:21:33;;;;;;;13.68;7.88;;;6.50;99.90;;;;;;4947684;29;20425;-75
2022/11/27 11:24:05;;;;;;;15.18;8.23;;;6.40;99.90;;;;;;4948512;29;20428;-76
2022/11/27 11:26:43;;;;;;;12.75;7.85;;;6.60;99.90;;;;;;4929691;28;20805;-77
2022/11/27 11:29:39;;;;;;;11.63;7.70;;;6.70;99.90;;;;;;4947481;29;20544;-76
2022/11/27 11:32:20;;;;;;;17.08;8.93;;;6.60;99.90;;;;;;4947065;29;20449;-77
2022/11/27 11:34:50;;;;;;;15.40;8.37;;;6.60;99.90;;;;;;4931031;29;20422;-76
2022/11/27 11:37:19;;;;;;;20.10;9.97;;;6.70;99.90;;;;;;4948858;29;20417;-76
2022/11/27 11:39:51;;;;;;;15.02;8.25;;;6.70;99.90;;;;;;4947744;29;20406;-76
2022/11/27 11:42:32;;;;;;;18.02;8.63;;;6.70;99.90;;;;;;4930945;29;20429;-76
2022/11/27 11:45:10;;;;;;;12.10;7.07;;;6.60;99.90;;;;;;4930370;29;20939;-76
2022/11/27 11:47:53;;;;;;;16.15;8.10;;;6.60;99.90;;;;;;4947519;29;20576;-75
2022/11/27 11:50:25;;;;;;;15.88;8.32;;;6.70;99.90;;;;;;4947453;29;20659;-77
2022/11/27 11:53:14;;;;;;;16.23;8.95;;;6.70;99.90;;;;;;4948168;29;20406;-75
2022/11/27 11:55:52;;;;;;;13.73;8.32;;;6.80;99.90;;;;;;4947147;29;20484;-74
2022/11/27 11:58:30;;;;;;;12.32;7.38;;;6.70;99.90;;;;;;4930665;29;20734;-78
2022/11/27 12:01:40;;;;;;;13.63;7.40;;;6.60;99.90;;;;;;4947420;29;20901;-76
2022/11/27 12:04:33;;;;;;;13.05;7.90;;;6.60;99.90;;;;;;4913210;29;20422;-77
2022/11/27 12:07:25;;;;;;;17.67;8.40;;;6.70;99.90;;;;;;4928797;29;20622;-74
2022/11/27 12:10:16;;;;;;;14.67;7.63;;;6.70;99.90;;;;;;4928145;29;20439;-75
2022/11/27 12:13:03;;;;;;;13.50;8.18;;;6.70;99.90;;;;;;4928843;29;20420;-76
2022/11/27 12:15:53;;;;;;;15.65;8.93;;;6.70;99.90;;;;;;4910969;29;20415;-77
2022/11/27 12:18:44;;;;;;;16.92;8.88;;;6.80;99.90;;;;;;4927969;29;20419;-77
2022/11/27 12:21:27;;;;;;;13.07;7.90;;;6.70;99.90;;;;;;4928927;29;20416;-76
2022/11/27 12:24:37;;;;;;;14.73;8.52;;;6.70;99.90;;;;;;4928493;29;20506;-75
2022/11/27 12:27:38;;;;;;;13.95;8.25;;;6.90;99.90;;;;;;4850765;29;20642;-75
2022/11/27 12:30:16;;;;;;;15.40;8.10;;;6.90;99.90;;;;;;4928113;29;20431;-77
2022/11/27 12:33:00;;;;;;;15.63;7.63;;;6.80;99.90;;;;;;4908882;29;20813;-75
2022/11/27 12:35:32;;;;;;;14.73;7.78;;;6.90;99.90;;;;;;4909170;29;20492;-76
2022/11/27 12:38:32;;;;;;;13.15;7.68;;;6.90;99.90;;;;;;4909595;29;20991;-76
2022/11/27 12:41:24;;;;;;;15.07;8.38;;;6.80;99.90;;;;;;4912374;29;20845;-75
2022/11/27 12:43:54;;;;;;;16.60;7.75;;;6.70;99.90;;;;;;4913304;29;20413;-76
2022/11/27 12:46:50;;;;;;;10.02;6.90;;;6.70;99.90;;;;;;4913015;29;20439;-76
2022/11/27 12:49:34;;;;;;;15.35;7.80;;;6.70;99.90;;;;;;4913108;29;21055;-75
2022/11/27 12:52:11;;;;;;;15.02;7.93;;;6.70;99.90;;;;;;4912880;29;20440;-76
2022/11/27 12:55:03;;;;;;;12.65;8.10;;;6.80;99.90;;;;;;4895214;29;20910;-77
2022/11/27 12:57:39;;;;;;;13.13;7.97;;;6.90;99.90;;;;;;4908464;29;20417;-76
2022/11/27 13:00:18;;;;;;;13.80;8.73;;;6.80;99.90;;;;;;4912842;29;20457;-76
2022/11/27 13:02:53;;;;;;;15.00;8.27;;;6.70;99.90;;;;;;4919824;29;20479;-76
2022/11/27 13:05:22;;;;;;;14.13;8.43;;;6.60;99.90;;;;;;4932815;29;20505;-77
2022/11/27 13:07:55;;;;;;;12.68;7.95;;;6.70;99.90;;;;;;4950886;29;20454;-76
2022/11/27 13:10:32;;;;;;;12.20;7.40;;;6.80;99.90;;;;;;4949061;29;20542;-76